createdAt,value
2018-10-21T00:01:20.087Z,20.57
2018-10-21T00:03:47.560Z,24.70
2018-10-21T00:06:16.041Z,22.97
2018-10-21T00:08:43.702Z,22.20
2018-10-21T00:11:11.306Z,25.00
2018-10-21T00:13:39.113Z,26.10
2018-10-21T00:16:06.987Z,19.43
2018-10-21T00:18:34.754Z,18.67
2018-10-21T00:21:02.598Z,23.03
2018-10-21T00:23:29.966Z,22.10
2018-10-21T00:25:57.349Z,29.87
2018-10-21T00:28:24.686Z,26.13
2018-10-21T00:30:52.171Z,23.67
2018-10-21T00:33:19.540Z,27.03
2018-10-21T00:35:46.957Z,23.60
2018-10-21T00:38:14.715Z,25.40
2018-10-21T00:40:42.386Z,26.37
2018-10-21T00:43:09.733Z,21.47
2018-10-21T00:45:37.099Z,23.50
2018-10-21T00:48:04.471Z,22.97
2018-10-21T00:50:31.880Z,22.17
2018-10-21T00:52:59.237Z,20.43
2018-10-21T00:55:26.635Z,24.53
2018-10-21T00:57:54.002Z,28.67
2018-10-21T01:00:21.431Z,25.40
2018-10-21T01:02:49.221Z,26.30
2018-10-21T01:05:16.818Z,26.43
2018-10-21T01:07:44.604Z,28.10
2018-10-21T01:10:12.456Z,25.43
2018-10-21T01:12:40.309Z,26.40
2018-10-21T01:15:08.434Z,22.70
2018-10-21T01:17:35.698Z,21.97
2018-10-21T01:20:04.331Z,22.22
2018-10-21T01:22:31.683Z,27.63
2018-10-21T01:24:59.426Z,31.80
2018-10-21T01:27:27.326Z,25.93
2018-10-21T01:29:54.957Z,24.17
2018-10-21T01:32:22.859Z,19.53
2018-10-21T01:34:50.496Z,22.67
2018-10-21T01:37:18.056Z,29.90
2018-10-21T01:40:49.855Z,22.73
2018-10-21T01:43:18.685Z,24.77
2018-10-21T01:45:46.403Z,23.07
2018-10-21T01:48:15.355Z,20.00
2018-10-21T01:50:42.974Z,24.47
2018-10-21T01:53:11.386Z,22.23
2018-10-21T01:55:38.948Z,23.27
2018-10-21T01:58:06.424Z,26.00
2018-10-21T02:00:34.125Z,27.63
2018-10-21T02:03:01.883Z,20.67
2018-10-21T02:05:29.587Z,25.70
2018-10-21T02:07:57.298Z,21.77
2018-10-21T02:10:24.682Z,20.70
2018-10-21T02:12:52.158Z,25.80
2018-10-21T02:15:19.515Z,17.00
2018-10-21T02:17:46.895Z,21.50
2018-10-21T02:20:14.905Z,28.50
2018-10-21T02:22:43.049Z,30.20
2018-10-21T02:25:10.608Z,22.63
2018-10-21T02:27:38.874Z,28.33
2018-10-21T02:30:07.888Z,25.87
2018-10-21T02:32:35.404Z,24.90
2018-10-21T02:35:03.579Z,21.37
2018-10-21T02:37:31.657Z,19.90
2018-10-21T02:39:59.385Z,24.30
2018-10-21T02:42:27.273Z,24.27
2018-10-21T02:44:54.638Z,21.10
2018-10-21T02:47:22.022Z,21.43
2018-10-21T02:49:49.406Z,22.60
2018-10-21T02:52:16.813Z,22.17
2018-10-21T02:54:44.416Z,19.30
2018-10-21T02:57:13.108Z,21.60
2018-10-21T02:59:40.576Z,20.03
2018-10-21T03:02:08.125Z,19.20
2018-10-21T03:04:35.774Z,21.90
2018-10-21T03:07:03.643Z,22.97
2018-10-21T03:09:31.665Z,24.97
2018-10-21T03:12:00.451Z,20.60
2018-10-21T03:14:28.447Z,15.73
2018-10-21T03:16:55.854Z,20.60
2018-10-21T03:19:23.221Z,20.53
2018-10-21T03:21:50.617Z,18.80
2018-10-21T03:24:18.298Z,18.77
2018-10-21T03:26:46.332Z,22.33
2018-10-21T03:29:13.722Z,20.37
2018-10-21T03:31:41.157Z,27.40
2018-10-21T03:34:08.743Z,18.10
2018-10-21T03:36:36.161Z,23.97
2018-10-21T03:39:05.299Z,22.77
2018-10-21T03:41:33.017Z,24.57
2018-10-21T03:44:00.461Z,22.37
2018-10-21T03:46:28.213Z,22.00
2018-10-21T03:48:55.927Z,18.97
2018-10-21T03:51:24.076Z,22.33
2018-10-21T03:53:51.763Z,17.37
2018-10-21T03:56:19.107Z,17.87
2018-10-21T03:58:46.476Z,23.33
2018-10-21T04:01:13.859Z,27.20
2018-10-21T04:03:41.248Z,22.23
2018-10-21T04:06:08.782Z,20.20
2018-10-21T04:08:36.401Z,24.20
2018-10-21T04:11:04.607Z,19.50
2018-10-21T04:13:32.102Z,21.70
2018-10-21T04:15:59.458Z,25.00
2018-10-21T04:18:26.833Z,20.47
2018-10-21T04:20:54.190Z,17.00
2018-10-21T04:23:21.590Z,18.07
2018-10-21T04:25:48.951Z,19.30
2018-10-21T04:28:16.458Z,23.13
2018-10-21T04:30:44.083Z,19.83
2018-10-21T04:33:18.578Z,19.20
2018-10-21T04:35:45.937Z,17.50
2018-10-21T04:38:21.888Z,21.90
2018-10-21T04:40:49.215Z,17.87
2018-10-21T04:43:16.594Z,22.37
2018-10-21T04:45:44.058Z,21.70
2018-10-21T04:48:11.471Z,19.53
2018-10-21T04:50:38.939Z,19.37
2018-10-21T04:53:06.594Z,20.70
2018-10-21T04:55:34.868Z,22.47
2018-10-21T04:58:03.108Z,21.37
2018-10-21T05:00:30.976Z,24.97
2018-10-21T05:02:58.616Z,20.13
2018-10-21T05:05:26.030Z,17.13
2018-10-21T05:07:53.436Z,19.43
2018-10-21T05:10:22.174Z,18.63
2018-10-21T05:12:49.535Z,22.67
2018-10-21T05:15:16.917Z,18.80
2018-10-21T05:17:44.437Z,16.83
2018-10-21T05:20:12.055Z,19.37
2018-10-21T05:22:39.565Z,21.13
2018-10-21T05:25:07.449Z,25.27
2018-10-21T05:27:35.180Z,21.00
2018-10-21T05:30:02.841Z,20.87
2018-10-21T05:32:30.189Z,21.07
2018-10-21T05:34:57.589Z,20.43
2018-10-21T05:37:24.964Z,17.97
2018-10-21T05:39:52.665Z,18.03
2018-10-21T05:42:20.014Z,18.83
2018-10-21T05:44:47.405Z,20.10
2018-10-21T05:47:15.007Z,31.00
2018-10-21T05:49:42.380Z,19.70
2018-10-21T05:52:09.938Z,16.70
2018-10-21T05:54:41.654Z,20.33
2018-10-21T05:57:09.152Z,19.63
2018-10-21T05:59:36.884Z,22.43
2018-10-21T06:02:05.011Z,22.80
2018-10-21T06:04:32.386Z,21.77
2018-10-21T06:06:59.752Z,16.43
2018-10-21T06:09:27.156Z,30.40
2018-10-21T06:11:54.523Z,37.13
2018-10-21T06:14:21.906Z,22.97
2018-10-21T06:16:52.426Z,19.33
2018-10-21T06:21:26.259Z,24.70
2018-10-21T06:23:53.718Z,19.57
2018-10-21T06:26:21.063Z,22.30
2018-10-21T06:28:48.556Z,20.30
2018-10-21T06:31:16.192Z,23.03
2018-10-21T06:33:43.645Z,17.70
2018-10-21T06:36:11.020Z,20.03
2018-10-21T06:38:38.591Z,16.70
2018-10-21T06:41:06.321Z,17.10
2018-10-21T06:43:33.766Z,21.37
2018-10-21T06:46:01.153Z,43.10
2018-10-21T06:48:29.023Z,29.57
2018-10-21T06:50:56.411Z,19.60
2018-10-21T06:53:23.773Z,23.10
2018-10-21T06:55:51.288Z,26.77
2018-10-21T06:58:18.624Z,17.53
2018-10-21T07:00:46.209Z,19.70
2018-10-21T07:03:13.581Z,37.27
2018-10-21T07:06:43.290Z,18.23
2018-10-21T07:09:10.788Z,15.73
2018-10-21T07:11:38.371Z,95.67
2018-10-21T07:14:06.046Z,56.03
2018-10-21T07:16:33.514Z,24.43
2018-10-21T07:19:00.841Z,21.83
2018-10-21T07:21:28.198Z,20.47
2018-10-21T07:23:55.649Z,20.50
2018-10-21T07:26:23.035Z,16.10
2018-10-21T07:28:50.400Z,19.10
2018-10-21T07:31:17.822Z,19.20
2018-10-21T07:33:45.191Z,21.00
2018-10-21T07:36:12.796Z,25.03
2018-10-21T07:38:40.461Z,19.80
2018-10-21T07:41:08.285Z,19.17
2018-10-21T07:43:35.823Z,22.07
2018-10-21T07:46:03.287Z,18.60
2018-10-21T07:48:30.691Z,18.90
2018-10-21T07:50:58.088Z,17.60
2018-10-21T07:53:25.454Z,17.70
2018-10-21T07:55:52.828Z,30.20
2018-10-21T07:58:20.260Z,22.53
2018-10-21T08:00:47.761Z,18.70
2018-10-21T08:03:15.115Z,20.10
2018-10-21T08:05:48.152Z,21.10
2018-10-21T08:08:22.383Z,17.87
2018-10-21T08:10:49.800Z,21.30
2018-10-21T08:13:19.287Z,19.93
2018-10-21T08:15:46.906Z,30.13
2018-10-21T08:18:14.917Z,17.17
2018-10-21T08:20:43.703Z,28.67
2018-10-21T08:23:12.428Z,33.37
2018-10-21T08:25:40.327Z,17.80
2018-10-21T08:28:08.055Z,22.13
2018-10-21T08:30:35.360Z,22.13
2018-10-21T08:33:03.202Z,17.10
2018-10-21T08:35:30.588Z,18.87
2018-10-21T08:37:58.035Z,24.90
2018-10-21T08:40:25.436Z,28.20
2018-10-21T08:42:52.814Z,29.67
2018-10-21T08:45:20.338Z,23.13
2018-10-21T08:47:47.825Z,31.03
2018-10-21T08:50:15.460Z,19.63
2018-10-21T08:52:42.861Z,20.43
2018-10-21T08:55:11.337Z,18.67
2018-10-21T08:57:39.124Z,30.53
2018-10-21T09:00:09.995Z,26.10
2018-10-21T09:02:37.706Z,28.57
2018-10-21T09:05:06.060Z,65.60
2018-10-21T09:07:33.470Z,30.93
2018-10-21T09:10:00.995Z,20.63
2018-10-21T09:12:28.334Z,20.70
2018-10-21T09:14:55.783Z,24.37
2018-10-21T09:17:23.171Z,19.17
2018-10-21T09:19:50.559Z,21.03
2018-10-21T09:22:18.146Z,27.87
2018-10-21T09:24:45.614Z,22.87
2018-10-21T09:27:13.125Z,31.57
2018-10-21T09:29:40.850Z,20.73
2018-10-21T09:32:08.536Z,22.70
2018-10-21T09:34:35.880Z,19.00
2018-10-21T09:37:04.354Z,19.70
2018-10-21T09:39:31.715Z,23.47
2018-10-21T09:41:59.155Z,33.50
2018-10-21T09:44:26.514Z,29.50
2018-10-21T09:46:53.906Z,19.60
2018-10-21T09:49:21.333Z,21.57
2018-10-21T09:51:48.868Z,20.80
2018-10-21T09:54:16.299Z,23.37
2018-10-21T09:56:43.808Z,23.80
2018-10-21T09:59:11.691Z,24.80
2018-10-21T10:01:44.558Z,21.87
2018-10-21T10:04:12.318Z,26.10
2018-10-21T10:06:40.028Z,19.83
2018-10-21T10:09:08.578Z,24.10
2018-10-21T10:11:36.043Z,23.83
2018-10-21T10:14:03.422Z,19.93
2018-10-21T10:16:30.896Z,21.17
2018-10-21T10:18:58.260Z,15.90
2018-10-21T10:21:25.693Z,14.27
2018-10-21T10:23:53.125Z,13.50
2018-10-21T10:26:20.648Z,11.57
2018-10-21T10:28:48.008Z,15.53
2018-10-21T10:31:15.710Z,15.97
2018-10-21T10:33:43.972Z,15.93
2018-10-21T10:36:11.662Z,16.13
2018-10-21T10:38:39.092Z,16.80
2018-10-21T10:41:06.579Z,22.10
2018-10-21T10:43:33.924Z,14.03
2018-10-21T10:46:01.749Z,12.58
2018-10-21T10:48:29.108Z,16.23
2018-10-21T10:50:56.511Z,16.93
2018-10-21T10:53:23.885Z,10.37
2018-10-21T10:55:52.428Z,15.87
2018-10-21T10:58:20.010Z,13.13
2018-10-21T11:00:47.506Z,15.93
2018-10-21T11:03:15.157Z,15.03
2018-10-21T11:05:43.045Z,10.37
2018-10-21T11:08:11.158Z,13.00
2018-10-21T11:10:38.610Z,14.53
2018-10-21T11:13:06.016Z,11.13
2018-10-21T11:15:33.386Z,11.33
2018-10-21T11:18:00.790Z,10.13
2018-10-21T11:20:28.175Z,10.23
2018-10-21T11:22:55.625Z,12.17
2018-10-21T11:25:23.024Z,10.63
2018-10-21T11:27:50.490Z,13.40
2018-10-21T11:30:18.025Z,13.00
2018-10-21T11:32:45.571Z,7.90
2018-10-21T11:35:13.265Z,11.63
2018-10-21T11:37:41.030Z,8.00
2018-10-21T11:40:08.358Z,7.07
2018-10-21T11:42:35.799Z,8.30
2018-10-21T11:45:10.877Z,5.00
2018-10-21T11:47:38.348Z,9.47
2018-10-21T11:50:06.004Z,18.33
2018-10-21T11:52:33.398Z,10.00
2018-10-21T11:55:00.789Z,4.60
2018-10-21T11:57:28.187Z,5.03
2018-10-21T11:59:55.575Z,8.30
2018-10-21T12:02:23.094Z,4.50
2018-10-21T12:04:50.450Z,8.90
2018-10-21T12:07:18.199Z,3.70
2018-10-21T12:09:45.753Z,4.87
2018-10-21T12:12:13.467Z,7.73
2018-10-21T12:14:40.888Z,5.40
2018-10-21T12:17:08.264Z,4.33
2018-10-21T12:19:35.601Z,7.80
2018-10-21T12:22:03.025Z,11.53
2018-10-21T12:24:30.355Z,6.77
2018-10-21T12:26:57.750Z,8.40
2018-10-21T12:29:25.118Z,9.20
2018-10-21T12:31:52.600Z,5.23
2018-10-21T12:34:19.937Z,5.50
2018-10-21T12:36:47.434Z,8.33
2018-10-21T12:39:15.154Z,6.20
2018-10-21T12:41:43.237Z,5.20
2018-10-21T12:44:10.686Z,5.57
2018-10-21T12:46:38.439Z,4.63
2018-10-21T12:49:05.964Z,3.90
2018-10-21T12:51:33.365Z,4.90
2018-10-21T12:54:00.767Z,3.07
2018-10-21T12:56:28.123Z,7.10
2018-10-21T12:58:55.462Z,3.50
2018-10-21T13:01:22.932Z,2.67
2018-10-21T13:03:50.508Z,6.20
2018-10-21T13:06:18.006Z,5.10
2018-10-21T13:08:45.587Z,7.03
2018-10-21T13:11:13.431Z,3.20
2018-10-21T13:13:40.799Z,2.00
2018-10-21T13:16:08.271Z,2.23
2018-10-21T13:18:35.645Z,2.57
2018-10-21T13:21:02.997Z,4.10
2018-10-21T13:23:30.358Z,3.07
2018-10-21T13:25:57.687Z,3.87
2018-10-21T13:28:25.259Z,4.57
2018-10-21T13:30:52.607Z,2.83
2018-10-21T13:33:20.052Z,3.20
2018-10-21T13:35:47.578Z,2.33
2018-10-21T13:38:15.352Z,4.67
2018-10-21T13:40:43.067Z,4.43
2018-10-21T13:43:10.484Z,2.90
2018-10-21T13:45:37.843Z,4.20
2018-10-21T13:48:05.281Z,5.37
2018-10-21T13:50:32.644Z,3.40
2018-10-21T13:53:00.052Z,3.27
2018-10-21T13:55:27.404Z,3.17
2018-10-21T13:57:54.878Z,3.93
2018-10-21T14:00:22.302Z,3.30
2018-10-21T14:02:49.830Z,20.43
2018-10-21T14:05:17.794Z,3.13
2018-10-21T14:07:45.599Z,3.07
2018-10-21T14:10:13.077Z,2.27
2018-10-21T14:12:40.451Z,4.00
2018-10-21T14:15:07.891Z,4.70
2018-10-21T14:17:35.270Z,5.00
2018-10-21T14:20:02.714Z,3.20
2018-10-21T14:22:30.075Z,3.20
2018-10-21T14:24:57.463Z,2.90
2018-10-21T14:27:24.977Z,2.30
2018-10-21T14:29:52.355Z,4.70
2018-10-21T14:32:19.885Z,7.03
2018-10-21T14:34:47.660Z,1.70
2018-10-21T14:37:15.643Z,2.40
2018-10-21T14:39:43.129Z,3.87
2018-10-21T14:42:10.573Z,2.43
2018-10-21T14:44:37.880Z,4.23
2018-10-21T14:47:05.306Z,3.43
2018-10-21T14:49:32.683Z,4.30
2018-10-21T14:52:00.108Z,4.30
2018-10-21T14:54:27.491Z,4.43
2018-10-21T14:56:54.945Z,4.00
2018-10-21T14:59:22.477Z,6.20
2018-10-21T15:01:50.072Z,5.00
2018-10-21T15:04:17.776Z,4.23
2018-10-21T15:06:45.380Z,3.07
2018-10-21T15:09:14.288Z,2.83
2018-10-21T15:11:42.104Z,2.63
2018-10-21T15:14:10.224Z,1.57
2018-10-21T15:16:37.529Z,7.13
2018-10-21T15:19:05.104Z,4.67
2018-10-21T15:21:32.469Z,2.37
2018-10-21T15:24:00.058Z,3.30
2018-10-21T15:26:27.424Z,2.30
2018-10-21T15:28:54.992Z,4.30
2018-10-21T15:31:22.518Z,4.50
2018-10-21T15:33:50.106Z,4.10
2018-10-21T15:36:17.834Z,2.63
2018-10-21T15:38:45.498Z,2.90
2018-10-21T15:41:12.884Z,1.63
2018-10-21T15:43:40.315Z,2.00
2018-10-21T15:46:07.695Z,8.83
2018-10-21T15:48:35.117Z,5.80
2018-10-21T15:51:02.656Z,2.80
2018-10-21T15:53:30.038Z,3.73
2018-10-21T15:55:57.493Z,3.67
2018-10-21T15:58:24.840Z,3.17
2018-10-21T16:00:52.376Z,10.43
2018-10-21T16:03:19.982Z,3.03
2018-10-21T16:05:47.522Z,2.23
2018-10-21T16:08:15.109Z,2.90
2018-10-21T16:10:42.456Z,8.20
2018-10-21T16:13:10.255Z,5.57
2018-10-21T16:15:37.691Z,5.00
2018-10-21T16:18:05.176Z,4.00
2018-10-21T16:20:32.538Z,5.27
2018-10-21T16:22:59.930Z,2.83
2018-10-21T16:25:27.521Z,17.20
2018-10-21T16:27:54.987Z,5.30
2018-10-21T16:30:22.471Z,7.03
2018-10-21T16:32:50.070Z,5.90
2018-10-21T16:35:17.961Z,2.60
2018-10-21T16:37:45.489Z,2.40
2018-10-21T16:40:14.047Z,2.13
2018-10-21T16:42:41.499Z,3.10
2018-10-21T16:45:09.771Z,3.17
2018-10-21T16:47:37.832Z,2.90
2018-10-21T16:50:06.091Z,2.67
2018-10-21T16:52:34.290Z,3.27
2018-10-21T16:55:02.688Z,2.60
2018-10-21T16:57:30.056Z,4.90
2018-10-21T16:59:57.675Z,2.40
2018-10-21T17:02:25.036Z,7.20
2018-10-21T17:04:52.553Z,4.70
2018-10-21T17:07:20.086Z,2.50
2018-10-21T17:09:48.177Z,5.27
2018-10-21T17:12:15.262Z,2.60
2018-10-21T17:14:42.691Z,5.37
2018-10-21T17:17:10.210Z,8.33
2018-10-21T17:19:37.555Z,4.83
2018-10-21T17:22:04.952Z,3.10
2018-10-21T17:24:32.309Z,6.30
2018-10-21T17:26:59.653Z,3.53
2018-10-21T17:29:27.166Z,4.00
2018-10-21T17:31:54.992Z,6.00
2018-10-21T17:34:23.088Z,3.20
2018-10-21T17:36:50.979Z,14.83
2018-10-21T17:39:19.160Z,4.07
2018-10-21T17:41:47.185Z,38.03
2018-10-21T17:44:14.573Z,15.57
2018-10-21T17:46:42.357Z,8.20
2018-10-21T17:49:09.767Z,3.60
2018-10-21T17:51:37.142Z,4.63
2018-10-21T17:54:04.831Z,9.00
2018-10-21T17:56:32.205Z,8.13
2018-10-21T17:58:59.620Z,5.00
2018-10-21T18:01:27.142Z,4.63
2018-10-21T18:03:54.681Z,2.80
2018-10-21T18:06:22.218Z,4.53
2018-10-21T18:08:49.858Z,7.13
2018-10-21T18:11:17.504Z,6.83
2018-10-21T18:13:44.856Z,4.57
2018-10-21T18:16:12.337Z,7.13
2018-10-21T18:18:39.982Z,33.37
2018-10-21T18:21:07.382Z,12.50
2018-10-21T18:23:34.799Z,5.37
2018-10-21T18:26:02.517Z,5.27
2018-10-21T18:28:29.867Z,9.77
2018-10-21T18:30:57.357Z,7.53
2018-10-21T18:33:25.388Z,8.00
2018-10-21T18:35:52.932Z,5.57
2018-10-21T18:38:21.429Z,4.80
2018-10-21T18:40:51.317Z,4.23
2018-10-21T18:43:21.198Z,4.57
2018-10-21T18:45:51.021Z,6.13
2018-10-21T18:48:20.202Z,3.63
2018-10-21T18:50:48.673Z,5.00
2018-10-21T18:53:16.733Z,5.57
2018-10-21T18:55:44.280Z,6.10
2018-10-21T18:58:12.329Z,16.03
2018-10-21T19:00:41.328Z,6.00
2018-10-21T19:03:08.761Z,3.70
2018-10-21T19:05:36.264Z,5.63
2018-10-21T19:08:03.698Z,4.63
2018-10-21T19:10:31.080Z,3.57
2018-10-21T19:13:00.051Z,4.33
2018-10-21T19:15:26.035Z,12.13
2018-10-21T19:17:53.575Z,15.77
2018-10-21T19:20:21.110Z,15.50
2018-10-21T19:22:49.118Z,9.83
2018-10-21T19:25:16.997Z,8.27
2018-10-21T19:27:45.431Z,7.53
2018-10-21T19:30:13.589Z,10.77
2018-10-21T19:32:41.981Z,16.93
2018-10-21T19:35:10.961Z,16.20
2018-10-21T19:37:38.867Z,15.97
2018-10-21T19:40:07.109Z,17.40
2018-10-21T19:42:34.731Z,13.77
2018-10-21T19:45:02.624Z,8.50
2018-10-21T19:47:30.859Z,22.37
2018-10-21T19:49:58.844Z,29.70
2018-10-21T19:52:26.396Z,23.63
2018-10-21T19:54:53.989Z,11.77
2018-10-21T19:57:21.904Z,9.50
2018-10-21T19:59:49.634Z,6.80
2018-10-21T20:02:17.968Z,7.13
2018-10-21T20:04:45.907Z,7.60
2018-10-21T20:07:13.644Z,8.97
2018-10-21T20:09:40.987Z,9.50
2018-10-21T20:12:08.428Z,17.17
2018-10-21T20:14:35.778Z,9.77
2018-10-21T20:17:03.180Z,14.53
2018-10-21T20:19:30.623Z,10.13
2018-10-21T20:21:58.044Z,8.37
2018-10-21T20:24:25.491Z,13.03
2018-10-21T20:26:53.086Z,7.90
2018-10-21T20:29:20.706Z,7.27
2018-10-21T20:31:48.066Z,6.43
2018-10-21T20:34:15.503Z,10.03
2018-10-21T20:36:42.797Z,8.73
2018-10-21T20:39:10.690Z,9.70
2018-10-21T20:41:38.399Z,9.33
2018-10-21T20:44:05.754Z,10.60
2018-10-21T20:46:33.132Z,5.53
2018-10-21T20:49:00.646Z,4.23
2018-10-21T20:51:28.144Z,13.53
2018-10-21T20:53:55.533Z,10.00
2018-10-21T20:56:23.228Z,16.97
2018-10-21T20:58:51.034Z,17.17
2018-10-21T21:01:18.402Z,7.73
2018-10-21T21:03:45.783Z,7.27
2018-10-21T21:06:13.219Z,8.50
2018-10-21T21:08:40.608Z,11.63
2018-10-21T21:11:08.611Z,6.87
2018-10-21T21:13:35.931Z,8.10
2018-10-21T21:16:03.276Z,7.37
2018-10-21T21:18:30.807Z,7.63
2018-10-21T21:20:58.230Z,13.23
2018-10-21T21:23:25.646Z,7.93
2018-10-21T21:25:53.340Z,8.40
2018-10-21T21:28:20.945Z,10.53
2018-10-21T21:30:48.279Z,7.70
2018-10-21T21:33:15.670Z,6.73
2018-10-21T21:35:43.055Z,9.37
2018-10-21T21:38:10.423Z,9.93
2018-10-21T21:40:37.769Z,9.27
2018-10-21T21:43:05.241Z,8.00
2018-10-21T21:45:32.696Z,8.63
2018-10-21T21:48:00.050Z,6.63
2018-10-21T21:50:27.596Z,9.57
2018-10-21T21:52:55.278Z,11.80
2018-10-21T21:55:22.999Z,6.30
2018-10-21T21:57:50.479Z,10.27
2018-10-21T22:00:18.027Z,6.63
2018-10-21T22:02:45.309Z,8.87
2018-10-21T22:05:12.658Z,6.40
2018-10-21T22:07:40.607Z,5.70
2018-10-21T22:10:08.783Z,6.93
2018-10-21T22:12:36.225Z,7.93
2018-10-21T22:15:03.792Z,6.57
2018-10-21T22:17:31.376Z,8.83
2018-10-21T22:19:58.958Z,7.20
2018-10-21T22:22:26.562Z,6.10
2018-10-21T22:24:54.292Z,8.60
2018-10-21T22:27:21.830Z,6.13
2018-10-21T22:29:49.289Z,6.37
2018-10-21T22:32:16.653Z,6.97
2018-10-21T22:34:44.013Z,6.13
2018-10-21T22:37:11.394Z,6.63
2018-10-21T22:39:38.823Z,6.13
2018-10-21T22:42:06.236Z,9.57
2018-10-21T22:44:33.742Z,8.93
2018-10-21T22:47:01.115Z,8.03
2018-10-21T22:49:28.651Z,10.17
2018-10-21T22:51:56.411Z,7.57
2018-10-21T22:54:24.384Z,9.30
2018-10-21T22:56:51.841Z,10.13
2018-10-21T22:59:19.182Z,11.23
2018-10-21T23:01:46.611Z,7.67
2018-10-21T23:04:14.005Z,8.13
2018-10-21T23:06:41.380Z,5.50
2018-10-21T23:09:09.824Z,6.33
2018-10-21T23:11:37.221Z,6.93
2018-10-21T23:14:04.631Z,7.03
2018-10-21T23:16:32.004Z,11.60
2018-10-21T23:20:04.593Z,7.90
2018-10-21T23:22:31.954Z,8.20
2018-10-21T23:24:59.438Z,8.27
2018-10-21T23:27:26.990Z,9.20
2018-10-21T23:29:55.163Z,6.27
2018-10-21T23:32:23.155Z,5.27
2018-10-21T23:34:50.811Z,5.67
2018-10-21T23:37:18.588Z,7.23
2018-10-21T23:39:46.300Z,7.07
2018-10-21T23:42:14.065Z,8.33
2018-10-21T23:44:41.761Z,9.07
2018-10-21T23:47:09.599Z,17.73
2018-10-21T23:49:36.942Z,7.40
2018-10-21T23:52:05.327Z,9.00
2018-10-21T23:54:33.013Z,7.60
2018-10-21T23:57:00.863Z,6.10
2018-10-21T23:59:28.753Z,9.60
